Time;durP1;ratioP1;P1;durP2;ratioP2;P2;SDS_P1;SDS_P2;PMS_P1;PMS_P2;Temp;Humidity;BMP_temperature;BMP_pressure;BME280_temperature;BME280_humidity;BME280_pressure;Samples;Min_cycle;Max_cycle;Signal;HPM_P1;HPM_P2
2023/12/25 00:02:40;0.00;0.00;0.62;0.00;0.00;0.62;3.93;2.73;;;22.20;30.30;;;;;;2256228;61;20366;-56
2023/12/25 00:05:24;0.00;0.00;0.62;0.00;0.00;0.62;4.80;2.93;;;22.20;29.90;;;;;;2256644;61;20394;-73
2023/12/25 00:08:10;0.00;0.00;0.62;0.00;0.00;0.62;4.17;2.60;;;22.20;29.90;;;;;;2523339;53;20377;-57
2023/12/25 00:10:55;0.00;0.00;0.62;0.00;0.00;0.62;3.97;2.53;;;22.20;29.90;;;;;;2256697;61;20803;-59
2023/12/25 00:13:40;0.00;0.00;0.62;0.00;0.00;0.62;3.20;2.70;;;22.20;29.90;;;;;;2256358;61;20474;-56
2023/12/25 00:16:26;0.00;0.00;0.62;0.00;0.00;0.62;3.90;2.57;;;22.20;29.90;;;;;;2256080;61;20366;-57
2023/12/25 00:19:10;0.00;0.00;0.62;0.00;0.00;0.62;3.83;2.40;;;22.20;30.00;;;;;;2256613;61;20446;-53
2023/12/25 00:21:57;0.00;0.00;0.62;0.00;0.00;0.62;2.87;2.10;;;22.20;30.00;;;;;;2256234;61;20620;-56
2023/12/25 00:24:44;0.00;0.00;0.62;0.00;0.00;0.62;3.23;2.13;;;22.20;30.00;;;;;;2256136;61;20357;-56
2023/12/25 00:27:29;0.00;0.00;0.62;0.00;0.00;0.62;3.70;2.57;;;22.20;30.00;;;;;;2256367;61;20420;-55
2023/12/25 00:30:14;0.00;0.00;0.62;0.00;0.00;0.62;5.20;2.50;;;22.20;30.00;;;;;;2256530;61;20433;-56
2023/12/25 00:32:58;0.00;0.00;0.62;0.00;0.00;0.62;3.90;2.33;;;22.20;30.10;;;;;;2255653;61;20385;-60
2023/12/25 00:35:43;0.00;0.00;0.62;0.00;0.00;0.62;3.03;2.17;;;22.20;30.00;;;;;;2256740;61;20408;-57
2023/12/25 00:38:27;0.00;0.00;0.62;0.00;0.00;0.62;3.70;2.13;;;22.30;30.20;;;;;;2256379;61;21150;-57
2023/12/25 00:41:13;0.00;0.00;0.62;0.00;0.00;0.62;3.30;2.13;;;22.30;30.20;;;;;;2256107;61;20370;-60
2023/12/25 00:43:58;0.00;0.00;0.62;0.00;0.00;0.62;2.60;1.80;;;22.30;30.20;;;;;;2256535;61;20871;-54
2023/12/25 00:46:43;0.00;0.00;0.62;0.00;0.00;0.62;3.70;2.13;;;22.30;30.20;;;;;;2256365;61;20461;-56
2023/12/25 00:49:27;0.00;0.00;0.62;0.00;0.00;0.62;3.50;2.00;;;22.30;30.20;;;;;;2256648;61;20490;-59
2023/12/25 00:52:16;0.00;0.00;0.62;0.00;0.00;0.62;3.40;1.77;;;22.30;30.20;;;;;;2255563;61;20416;-53
2023/12/25 00:55:01;0.00;0.00;0.62;0.00;0.00;0.62;2.30;1.67;;;22.30;30.20;;;;;;2256573;61;20905;-56
2023/12/25 00:57:48;0.00;0.00;0.62;0.00;0.00;0.62;4.20;2.23;;;22.30;30.20;;;;;;2256417;61;20370;-52
2023/12/25 01:00:32;0.00;0.00;0.62;0.00;0.00;0.62;3.30;1.60;;;22.30;30.20;;;;;;2256101;61;20390;-57
2023/12/25 01:03:18;0.00;0.00;0.62;0.00;0.00;0.62;3.17;2.07;;;22.30;30.20;;;;;;2255925;61;20366;-54
2023/12/25 01:06:03;0.00;0.00;0.62;0.00;0.00;0.62;2.67;1.53;;;22.30;30.20;;;;;;2256472;61;20397;-59
2023/12/25 01:08:48;0.00;0.00;0.62;0.00;0.00;0.62;2.43;1.60;;;22.30;30.20;;;;;;2255973;61;20394;-56
2023/12/25 01:11:40;0.00;0.00;0.62;0.00;0.00;0.62;2.93;1.80;;;22.30;30.20;;;;;;2256112;61;20827;-57
2023/12/25 01:14:26;0.00;0.00;0.62;0.00;0.00;0.62;2.83;1.60;;;22.30;30.20;;;;;;2255536;61;20390;-62
2023/12/25 01:17:11;0.00;0.00;0.62;0.00;0.00;0.62;3.37;1.60;;;22.40;30.30;;;;;;2256404;61;20373;-54
2023/12/25 01:19:56;0.00;0.00;0.62;0.00;0.00;0.62;3.60;2.30;;;22.40;30.30;;;;;;2256427;61;20945;-60
2023/12/25 01:22:40;0.00;0.00;0.62;0.00;0.00;0.62;2.57;1.60;;;22.40;30.30;;;;;;2255104;61;20892;-56
2023/12/25 01:25:25;0.00;0.00;0.62;0.00;0.00;0.62;2.47;1.40;;;22.40;30.30;;;;;;2256055;61;20416;-58
2023/12/25 01:28:09;0.00;0.00;0.62;0.00;0.00;0.62;2.60;1.60;;;22.40;30.30;;;;;;2256568;61;20365;-53
2023/12/25 01:30:55;0.00;0.00;0.62;0.00;0.00;0.62;3.47;1.87;;;22.40;30.30;;;;;;2255559;61;20381;-55
2023/12/25 01:33:42;0.00;0.00;0.62;0.00;0.00;0.62;2.50;1.40;;;22.40;30.30;;;;;;2248470;61;20395;-55
2023/12/25 01:36:27;0.00;0.00;0.62;0.00;0.00;0.62;2.47;1.50;;;22.40;30.20;;;;;;2256516;61;20366;-56
2023/12/25 01:39:14;0.00;0.00;0.62;0.00;0.00;0.62;2.43;1.37;;;22.40;30.20;;;;;;2256385;61;20385;-56
2023/12/25 01:42:00;0.00;0.00;0.62;0.00;0.00;0.62;3.30;1.90;;;22.40;30.20;;;;;;2255737;61;20398;-59
2023/12/25 01:44:46;0.00;0.00;0.62;0.00;0.00;0.62;5.77;1.53;;;22.40;30.20;;;;;;2256260;61;20404;-60
2023/12/25 01:47:32;0.00;0.00;0.62;0.00;0.00;0.62;2.10;1.40;;;22.40;30.20;;;;;;2256406;61;20385;-59
2023/12/25 01:50:17;0.00;0.00;0.62;0.00;0.00;0.62;3.20;1.73;;;22.50;30.30;;;;;;2256294;61;20389;-55
2023/12/25 01:53:03;0.00;0.00;0.62;0.00;0.00;0.62;1.83;1.30;;;22.50;30.30;;;;;;2255257;61;20405;-56
2023/12/25 01:55:48;0.00;0.00;0.62;0.00;0.00;0.62;3.60;1.50;;;22.50;30.30;;;;;;2256351;61;20788;-56
2023/12/25 01:58:32;0.00;0.00;0.62;0.00;0.00;0.62;2.23;1.20;;;22.50;30.20;;;;;;2256016;61;20493;-57
2023/12/25 02:01:17;0.00;0.00;0.62;0.00;0.00;0.62;2.90;1.50;;;22.50;30.20;;;;;;2255985;61;20365;-59
2023/12/25 02:04:03;0.00;0.00;0.62;0.00;0.00;0.62;2.73;1.97;;;22.50;30.30;;;;;;2256653;61;20764;-53
2023/12/25 02:06:48;0.00;0.00;0.62;0.00;0.00;0.62;2.20;1.40;;;22.50;30.40;;;;;;2255354;61;20410;-61
2023/12/25 02:09:33;0.00;0.00;0.62;0.00;0.00;0.62;2.53;1.57;;;22.50;30.30;;;;;;2255881;61;20428;-56
2023/12/25 02:12:18;0.00;0.00;0.62;0.00;0.00;0.62;2.70;1.70;;;22.50;30.30;;;;;;2255421;61;20906;-53
2023/12/25 02:15:04;0.00;0.00;0.62;0.00;0.00;0.62;3.33;1.53;;;22.50;30.30;;;;;;2256560;61;20420;-57
2023/12/25 02:17:50;0.00;0.00;0.62;0.00;0.00;0.62;2.80;1.53;;;22.50;30.40;;;;;;2256651;61;20389;-56
2023/12/25 02:20:36;0.00;0.00;0.62;0.00;0.00;0.62;1.93;1.20;;;22.50;30.30;;;;;;2254100;61;20386;-52
2023/12/25 02:23:25;0.00;0.00;0.62;0.00;0.00;0.62;2.70;1.50;;;22.50;30.40;;;;;;2256583;61;20396;-54
2023/12/25 02:26:12;0.00;0.00;0.62;0.00;0.00;0.62;5.47;1.80;;;22.50;30.40;;;;;;2256752;61;20425;-55
2023/12/25 02:28:57;0.00;0.00;0.62;0.00;0.00;0.62;2.50;1.87;;;22.50;30.30;;;;;;2256842;61;20393;-58
2023/12/25 02:31:41;0.00;0.00;0.62;0.00;0.00;0.62;1.87;1.40;;;22.60;30.40;;;;;;2256189;61;20824;-59
2023/12/25 02:34:26;0.00;0.00;0.62;0.00;0.00;0.62;1.80;1.20;;;22.60;30.40;;;;;;2493018;53;20801;-55
2023/12/25 02:37:11;0.00;0.00;0.62;0.00;0.00;0.62;4.47;1.70;;;22.60;30.40;;;;;;2255920;61;20791;-58
2023/12/25 02:39:55;0.00;0.00;0.62;0.00;0.00;0.62;2.87;1.87;;;22.60;30.40;;;;;;2254662;61;21064;-59
2023/12/25 02:42:41;0.00;0.00;0.62;0.00;0.00;0.62;2.53;1.43;;;22.60;30.40;;;;;;2311097;58;20432;-59
2023/12/25 02:45:26;0.00;0.00;0.62;0.00;0.00;0.62;2.30;1.40;;;22.50;30.30;;;;;;2256501;61;20420;-59
2023/12/25 02:48:11;0.00;0.00;0.62;0.00;0.00;0.62;2.80;1.53;;;22.60;30.30;;;;;;2254009;61;20401;-52
2023/12/25 02:50:56;0.00;0.00;0.62;0.00;0.00;0.62;3.10;1.50;;;22.60;30.30;;;;;;2256428;61;20389;-58
2023/12/25 02:53:41;0.00;0.00;0.62;0.00;0.00;0.62;2.57;1.53;;;22.60;30.30;;;;;;2256806;61;20416;-57
2023/12/25 02:56:25;0.00;0.00;0.62;0.00;0.00;0.62;2.90;1.30;;;22.60;30.30;;;;;;2256966;61;20889;-57
2023/12/25 02:59:11;0.00;0.00;0.62;0.00;0.00;0.62;2.67;1.70;;;22.60;30.30;;;;;;2256166;61;20444;-56
2023/12/25 03:01:56;0.00;0.00;0.62;0.00;0.00;0.62;4.77;1.90;;;22.60;30.20;;;;;;2256562;61;20404;-58
2023/12/25 03:04:40;0.00;0.00;0.62;0.00;0.00;0.62;2.10;1.10;;;22.60;30.20;;;;;;2257034;61;20365;-51
2023/12/25 03:07:25;0.00;0.00;0.62;0.00;0.00;0.62;2.43;1.30;;;22.60;30.20;;;;;;2256135;61;20453;-58
2023/12/25 03:10:10;0.00;0.00;0.62;0.00;0.00;0.62;2.80;1.40;;;22.60;30.20;;;;;;2257099;61;20945;-58
2023/12/25 03:12:54;0.00;0.00;0.62;0.00;0.00;0.62;2.03;1.23;;;22.60;30.20;;;;;;2255353;61;20436;-53
2023/12/25 03:15:40;0.00;0.00;0.62;0.00;0.00;0.62;2.30;1.43;;;22.60;30.20;;;;;;2256532;61;20358;-55
2023/12/25 03:18:25;0.00;0.00;0.62;0.00;0.00;0.62;2.60;1.50;;;22.60;30.20;;;;;;2256667;61;20768;-54
2023/12/25 03:21:09;0.00;0.00;0.62;0.00;0.00;0.62;2.57;1.40;;;22.60;30.20;;;;;;2256490;61;20397;-57
2023/12/25 03:23:54;0.00;0.00;0.62;0.00;0.00;0.62;2.60;1.57;;;22.70;30.20;;;;;;2256365;61;20925;-53
2023/12/25 03:26:39;0.00;0.00;0.62;0.00;0.00;0.62;2.70;1.40;;;22.70;30.20;;;;;;2256615;61;20408;-58
2023/12/25 03:29:23;0.00;0.00;0.62;0.00;0.00;0.62;2.27;1.13;;;22.70;30.20;;;;;;2256338;61;20413;-56
2023/12/25 03:32:10;0.00;0.00;0.62;0.00;0.00;0.62;3.00;1.53;;;22.70;30.20;;;;;;2256563;61;20768;-60
2023/12/25 03:34:54;0.00;0.00;0.62;0.00;0.00;0.62;2.73;1.53;;;22.70;30.20;;;;;;2256664;61;20401;-58
2023/12/25 03:37:39;0.00;0.00;0.62;0.00;0.00;0.62;2.40;1.00;;;22.70;30.20;;;;;;2256437;61;20832;-58
2023/12/25 03:40:23;0.00;0.00;0.62;0.00;0.00;0.62;1.87;1.00;;;22.70;30.20;;;;;;2256461;61;20784;-59
2023/12/25 03:43:08;0.00;0.00;0.62;0.00;0.00;0.62;2.20;1.03;;;22.70;30.20;;;;;;2255507;61;20365;-55
2023/12/25 03:45:52;0.00;0.00;0.62;0.00;0.00;0.62;1.80;1.30;;;22.70;30.10;;;;;;2256433;61;20455;-55
2023/12/25 03:48:38;0.00;0.00;0.62;0.00;0.00;0.62;1.93;1.20;;;22.70;30.10;;;;;;2256072;61;20906;-58
2023/12/25 03:51:23;0.00;0.00;0.62;0.00;0.00;0.62;2.80;1.10;;;22.70;30.20;;;;;;2255971;61;20374;-58
2023/12/25 03:54:07;0.00;0.00;0.62;0.00;0.00;0.62;2.80;1.30;;;22.70;30.20;;;;;;2256774;61;20476;-56
2023/12/25 03:56:52;0.00;0.00;0.62;0.00;0.00;0.62;2.03;1.43;;;22.70;30.20;;;;;;2256159;61;20505;-56
2023/12/25 03:59:39;0.00;0.00;0.62;0.00;0.00;0.62;2.90;1.20;;;22.70;30.20;;;;;;2256592;61;20393;-59
2023/12/25 04:02:24;0.00;0.00;0.62;0.00;0.00;0.62;1.70;1.00;;;22.70;30.20;;;;;;2256111;61;20366;-56
2023/12/25 04:05:10;0.00;0.00;0.62;0.00;0.00;0.62;2.60;1.13;;;22.70;30.20;;;;;;2256126;61;20358;-61
2023/12/25 04:07:55;0.00;0.00;0.62;0.00;0.00;0.62;2.20;1.20;;;22.70;30.10;;;;;;2256603;61;20918;-57
2023/12/25 04:10:40;0.00;0.00;0.62;0.00;0.00;0.62;2.33;1.30;;;22.70;30.10;;;;;;2256308;61;20445;-57
2023/12/25 04:13:25;0.00;0.00;0.62;0.00;0.00;0.62;2.30;1.20;;;22.70;30.10;;;;;;2255857;61;20402;-60
2023/12/25 04:16:20;0.00;0.00;0.62;0.00;0.00;0.62;1.67;1.00;;;22.80;30.20;;;;;;2256200;61;20914;-58
2023/12/25 04:19:05;0.00;0.00;0.62;0.00;0.00;0.62;2.07;1.10;;;22.80;30.20;;;;;;2256227;61;20377;-57
2023/12/25 04:21:51;0.00;0.00;0.62;0.00;0.00;0.62;2.27;1.13;;;22.80;30.20;;;;;;2256181;61;20898;-54
2023/12/25 04:24:36;0.00;0.00;0.62;0.00;0.00;0.62;1.90;1.00;;;22.80;30.10;;;;;;2256433;61;20412;-58
2023/12/25 04:27:20;0.00;0.00;0.62;0.00;0.00;0.62;2.97;1.57;;;22.80;30.10;;;;;;2255910;61;20370;-59
2023/12/25 04:30:07;0.00;0.00;0.62;0.00;0.00;0.62;2.20;1.10;;;22.80;30.10;;;;;;2256114;61;20482;-57
2023/12/25 04:32:51;0.00;0.00;0.62;0.00;0.00;0.62;1.50;0.97;;;22.80;30.10;;;;;;2255982;61;20374;-57
2023/12/25 04:35:35;0.00;0.00;0.62;0.00;0.00;0.62;1.77;1.10;;;22.80;30.10;;;;;;2256260;61;20393;-60
2023/12/25 04:38:22;0.00;0.00;0.62;0.00;0.00;0.62;2.40;1.10;;;22.80;30.10;;;;;;2256141;61;20444;-61
2023/12/25 04:41:07;0.00;0.00;0.62;0.00;0.00;0.62;2.23;1.13;;;22.80;30.10;;;;;;2255352;61;20387;-57
2023/12/25 04:43:52;0.00;0.00;0.62;0.00;0.00;0.62;2.80;1.13;;;22.80;30.00;;;;;;2252811;61;20424;-60
2023/12/25 04:46:39;0.00;0.00;0.62;0.00;0.00;0.62;2.27;1.10;;;22.80;30.00;;;;;;2256334;61;20781;-59
2023/12/25 04:49:24;0.00;0.00;0.62;0.00;0.00;0.62;1.50;0.97;;;22.80;30.00;;;;;;2256254;61;20784;-59
2023/12/25 04:52:08;0.00;0.00;0.62;0.00;0.00;0.62;1.70;1.00;;;22.80;30.10;;;;;;2255741;61;20412;-58
2023/12/25 04:54:54;0.00;0.00;0.62;0.00;0.00;0.62;4.40;1.30;;;22.80;30.00;;;;;;2256609;61;20386;-55
2023/12/25 04:57:39;0.00;0.00;0.62;0.00;0.00;0.62;2.20;1.03;;;22.80;30.00;;;;;;2255598;61;20432;-54
2023/12/25 05:00:24;0.00;0.00;0.62;0.00;0.00;0.62;1.80;1.00;;;22.80;30.00;;;;;;2256452;61;20386;-57
2023/12/25 05:03:09;0.00;0.00;0.62;0.00;0.00;0.62;2.67;0.90;;;22.80;30.00;;;;;;2256168;61;20597;-56
2023/12/25 05:05:54;0.00;0.00;0.62;0.00;0.00;0.62;2.60;1.37;;;22.80;30.00;;;;;;2255861;61;20902;-55
2023/12/25 05:08:38;0.00;0.00;0.62;0.00;0.00;0.62;1.70;1.00;;;22.80;30.00;;;;;;2256542;61;20362;-55
2023/12/25 05:11:24;0.00;0.00;0.62;0.00;0.00;0.62;2.40;1.03;;;22.80;30.00;;;;;;2255749;61;20898;-56
2023/12/25 05:14:11;0.00;0.00;0.62;0.00;0.00;0.62;1.90;1.10;;;22.80;30.00;;;;;;2256331;61;20703;-57
2023/12/25 05:16:56;0.00;0.00;0.62;0.00;0.00;0.62;1.97;0.90;;;22.80;30.00;;;;;;2256562;61;20385;-58
2023/12/25 05:19:42;0.00;0.00;0.62;0.00;0.00;0.62;2.60;1.00;;;22.80;30.60;;;;;;2255631;61;20384;-57
2023/12/25 05:22:27;0.00;0.00;0.62;0.00;0.00;0.62;2.73;0.90;;;22.80;30.00;;;;;;2255620;61;20839;-55
2023/12/25 05:25:11;0.00;0.00;0.62;0.00;0.00;0.62;1.80;1.10;;;22.80;30.00;;;;;;2256525;61;20405;-55
2023/12/25 05:27:57;0.00;0.00;0.62;0.00;0.00;0.62;2.13;1.10;;;22.80;30.00;;;;;;2256163;61;20366;-58
2023/12/25 05:30:43;0.00;0.00;0.62;0.00;0.00;0.62;2.13;0.90;;;22.80;30.00;;;;;;2256414;61;20785;-55
2023/12/25 05:33:27;0.00;0.00;0.62;0.00;0.00;0.62;2.00;0.93;;;22.80;30.00;;;;;;2255359;61;20444;-55
2023/12/25 05:36:12;0.00;0.00;0.62;0.00;0.00;0.62;1.60;0.83;;;22.80;30.00;;;;;;2256541;61;20898;-57
2023/12/25 05:38:56;0.00;0.00;0.62;0.00;0.00;0.62;1.50;0.90;;;22.80;30.00;;;;;;2256758;61;20957;-57
2023/12/25 05:41:41;0.00;0.00;0.62;0.00;0.00;0.62;1.70;0.90;;;22.80;30.00;;;;;;2255740;61;20466;-54
2023/12/25 05:44:27;0.00;0.00;0.62;0.00;0.00;0.62;2.03;1.10;;;22.80;30.00;;;;;;2256670;61;20443;-53
2023/12/25 05:47:13;0.00;0.00;0.62;0.00;0.00;0.62;2.27;0.90;;;22.80;30.00;;;;;;2256625;61;20898;-54
2023/12/25 05:49:58;0.00;0.00;0.62;0.00;0.00;0.62;1.80;1.00;;;22.80;30.00;;;;;;2256456;61;20381;-53
2023/12/25 05:52:42;0.00;0.00;0.62;0.00;0.00;0.62;4.73;1.00;;;22.80;30.00;;;;;;2256063;61;20389;-56
2023/12/25 05:55:27;0.00;0.00;0.62;0.00;0.00;0.62;1.90;1.03;;;22.80;30.00;;;;;;2256154;61;20381;-54
2023/12/25 05:58:12;0.00;0.00;0.62;0.00;0.00;0.62;1.70;0.90;;;22.80;30.00;;;;;;2256278;61;20444;-57
2023/12/25 06:00:57;0.00;0.00;0.62;0.00;0.00;0.62;1.70;0.80;;;22.80;30.00;;;;;;2256380;61;20417;-54
2023/12/25 06:03:42;0.00;0.00;0.62;0.00;0.00;0.62;1.83;1.03;;;22.80;30.00;;;;;;2255589;61;20872;-56
2023/12/25 06:06:27;0.00;0.00;0.62;0.00;0.00;0.62;1.60;0.97;;;22.80;30.00;;;;;;2256466;61;20401;-57
2023/12/25 06:09:13;0.00;0.00;0.62;0.00;0.00;0.62;1.90;1.13;;;22.80;30.00;;;;;;2256293;61;20382;-54
2023/12/25 06:11:58;0.00;0.00;0.62;0.00;0.00;0.62;2.00;1.00;;;22.80;30.00;;;;;;2255665;61;21073;-53
2023/12/25 06:14:42;0.00;0.00;0.62;0.00;0.00;0.62;1.50;0.93;;;22.80;30.00;;;;;;2256362;61;20934;-59
2023/12/25 06:17:28;0.00;0.00;0.62;0.00;0.00;0.62;1.60;0.90;;;22.80;30.00;;;;;;2256494;61;20370;-57
2023/12/25 06:20:13;0.00;0.00;0.62;0.00;0.00;0.62;1.87;1.27;;;22.80;30.00;;;;;;2256202;61;20474;-57
2023/12/25 06:22:58;0.00;0.00;0.62;0.00;0.00;0.62;1.70;0.83;;;22.80;30.00;;;;;;2256016;61;20421;-55
2023/12/25 06:25:42;0.00;0.00;0.62;0.00;0.00;0.62;1.90;0.83;;;22.80;30.00;;;;;;2255821;61;20497;-58
2023/12/25 06:28:27;0.00;0.00;0.62;0.00;0.00;0.62;1.80;0.90;;;22.80;30.60;;;;;;2255859;61;20785;-54
2023/12/25 06:31:11;0.00;0.00;0.62;0.00;0.00;0.62;1.73;0.87;;;22.80;30.00;;;;;;2256334;61;20819;-58
2023/12/25 06:33:57;0.00;0.00;0.62;0.00;0.00;0.62;2.33;0.90;;;22.80;30.60;;;;;;2255229;61;20385;-57
2023/12/25 06:36:42;0.00;0.00;0.62;0.00;0.00;0.62;1.70;0.83;;;22.80;30.00;;;;;;2256258;61;20386;-58
2023/12/25 06:39:27;0.00;0.00;0.62;0.00;0.00;0.62;1.60;0.83;;;22.80;30.00;;;;;;2256217;61;20425;-55
2023/12/25 06:42:12;0.00;0.00;0.62;0.00;0.00;0.62;2.40;0.90;;;22.80;30.00;;;;;;2255607;61;20912;-54
2023/12/25 06:44:57;0.00;0.00;0.62;0.00;0.00;0.62;2.33;1.20;;;22.80;30.00;;;;;;2256477;61;20780;-55
2023/12/25 06:47:41;0.00;0.00;0.62;0.00;0.00;0.62;2.00;1.00;;;22.80;30.00;;;;;;2255995;61;20788;-55
2023/12/25 06:50:28;0.00;0.00;0.62;0.00;0.00;0.62;1.40;0.80;;;22.80;30.00;;;;;;2255808;61;20393;-57
2023/12/25 06:53:13;0.00;0.00;0.62;0.00;0.00;0.62;2.10;0.90;;;22.80;30.00;;;;;;2255796;61;20374;-57
2023/12/25 06:55:57;0.00;0.00;0.62;0.00;0.00;0.62;2.10;0.70;;;22.80;30.00;;;;;;2255827;61;20402;-56
2023/12/25 06:58:42;0.00;0.00;0.62;0.00;0.00;0.62;1.40;0.73;;;22.80;30.60;;;;;;2256621;61;20477;-57
2023/12/25 07:01:27;0.00;0.00;0.62;0.00;0.00;0.62;2.13;0.83;;;22.80;30.00;;;;;;2257068;61;20416;-60
2023/12/25 07:04:11;0.00;0.00;0.62;0.00;0.00;0.62;1.60;0.80;;;22.80;30.00;;;;;;2256656;61;20362;-59
2023/12/25 07:06:57;0.00;0.00;0.62;0.00;0.00;0.62;1.80;1.00;;;22.80;30.00;;;;;;2257001;61;20431;-57
2023/12/25 07:09:43;0.00;0.00;0.62;0.00;0.00;0.62;2.73;1.23;;;22.80;30.00;;;;;;2256520;61;20390;-58
2023/12/25 07:12:28;0.00;0.00;0.62;0.00;0.00;0.62;1.60;0.70;;;22.80;30.00;;;;;;2256687;61;20957;-56
2023/12/25 07:15:13;0.00;0.00;0.62;0.00;0.00;0.62;1.40;0.83;;;22.80;30.00;;;;;;2256760;61;20477;-56
2023/12/25 07:17:57;0.00;0.00;0.62;0.00;0.00;0.62;1.27;0.73;;;22.80;30.00;;;;;;2256676;61;20369;-57
2023/12/25 07:20:43;0.00;0.00;0.62;0.00;0.00;0.62;1.97;0.90;;;22.80;30.00;;;;;;2256401;61;20381;-56
2023/12/25 07:23:29;0.00;0.00;0.62;0.00;0.00;0.62;1.57;0.87;;;22.80;30.00;;;;;;2256527;61;20358;-56
2023/12/25 07:26:16;0.00;0.00;0.62;0.00;0.00;0.62;2.13;0.70;;;22.80;30.00;;;;;;2256574;61;20864;-51
2023/12/25 07:29:00;0.00;0.00;0.62;0.00;0.00;0.62;2.13;0.70;;;22.80;30.00;;;;;;2257038;61;20917;-58
2023/12/25 07:31:45;0.00;0.00;0.62;0.00;0.00;0.62;1.90;1.10;;;22.80;30.00;;;;;;2256280;61;20366;-56
2023/12/25 07:34:29;0.00;0.00;0.62;0.00;0.00;0.62;2.37;0.87;;;22.80;30.00;;;;;;2256841;61;20459;-54
2023/12/25 07:37:15;0.00;0.00;0.62;0.00;0.00;0.62;1.70;0.70;;;22.80;30.00;;;;;;2256818;61;20424;-57
2023/12/25 07:40:01;0.00;0.00;0.62;0.00;0.00;0.62;1.53;0.70;;;22.80;30.00;;;;;;2256332;61;20416;-57
2023/12/25 07:42:45;0.00;0.00;0.62;0.00;0.00;0.62;1.43;0.70;;;22.80;30.00;;;;;;2256582;61;20370;-56
2023/12/25 07:45:30;0.00;0.00;0.62;0.00;0.00;0.62;1.40;0.80;;;22.80;30.00;;;;;;2256744;61;20357;-56
2023/12/25 07:48:14;0.00;0.00;0.62;0.00;0.00;0.62;2.73;1.10;;;22.80;30.00;;;;;;2256390;61;20842;-58
2023/12/25 07:50:59;0.00;0.00;0.62;0.00;0.00;0.62;1.50;0.80;;;22.80;30.00;;;;;;2256811;61;20382;-56
2023/12/25 07:53:44;0.00;0.00;0.62;0.00;0.00;0.62;2.20;1.00;;;22.80;30.00;;;;;;2256501;61;20985;-56
2023/12/25 07:56:31;0.00;0.00;0.62;0.00;0.00;0.62;1.53;0.80;;;22.80;30.00;;;;;;2256884;61;20373;-59
2023/12/25 07:59:18;0.00;0.00;0.62;0.00;0.00;0.62;2.60;0.80;;;22.80;30.00;;;;;;2256858;61;20882;-59
2023/12/25 08:02:02;0.00;0.00;0.62;0.00;0.00;0.62;1.97;0.90;;;22.80;30.00;;;;;;2256164;61;20429;-58
2023/12/25 08:04:47;0.00;0.00;0.62;0.00;0.00;0.62;2.00;1.13;;;22.80;30.00;;;;;;2256681;61;20365;-60
2023/12/25 08:07:32;0.00;0.00;0.62;0.00;0.00;0.62;1.87;0.90;;;22.80;30.00;;;;;;2256332;61;20806;-58
2023/12/25 08:10:17;0.00;0.00;0.62;0.00;0.00;0.62;1.57;0.80;;;22.80;30.00;;;;;;2256269;61;20536;-55
2023/12/25 08:13:03;0.00;0.00;0.62;0.00;0.00;0.62;2.67;1.10;;;22.80;30.00;;;;;;2256275;61;20427;-54
2023/12/25 08:15:47;0.00;0.00;0.62;0.00;0.00;0.62;2.17;0.97;;;22.80;30.00;;;;;;2256756;61;20866;-55
2023/12/25 08:18:32;0.00;0.00;0.62;0.00;0.00;0.62;1.47;0.80;;;22.90;30.10;;;;;;2256511;61;20397;-57
2023/12/25 08:21:17;0.00;0.00;0.62;0.00;0.00;0.62;1.63;0.90;;;22.80;30.00;;;;;;2256325;61;20370;-57
2023/12/25 08:24:02;0.00;0.00;0.62;0.00;0.00;0.62;2.30;1.00;;;22.80;30.00;;;;;;2256207;61;20404;-56
2023/12/25 08:26:47;0.00;0.00;0.62;0.00;0.00;0.62;3.80;1.20;;;22.80;29.90;;;;;;2256751;61;20405;-58
2023/12/25 08:29:33;0.00;0.00;0.62;0.00;0.00;0.62;2.87;1.30;;;22.80;29.80;;;;;;2256114;61;20401;-60
2023/12/25 08:32:18;0.00;0.00;0.62;0.00;0.00;0.62;4.00;1.43;;;22.70;29.70;;;;;;2255693;61;20373;-58
2023/12/25 08:35:03;0.00;0.00;0.62;0.00;0.00;0.62;3.00;1.20;;;22.70;29.70;;;;;;2256705;61;20410;-56
2023/12/25 08:37:48;0.00;0.00;0.62;0.00;0.00;0.62;4.67;1.53;;;22.60;29.70;;;;;;2256832;61;20369;-55
2023/12/25 08:40:33;0.00;0.00;0.62;0.00;0.00;0.62;3.53;1.07;;;22.50;29.60;;;;;;2256244;61;20462;-56
2023/12/25 08:43:17;0.00;0.00;0.62;0.00;0.00;0.62;3.83;1.23;;;22.40;29.60;;;;;;2256364;61;20409;-56
2023/12/25 08:46:04;0.00;0.00;0.62;0.00;0.00;0.62;5.20;1.50;;;22.30;29.70;;;;;;2255497;61;20369;-59
2023/12/25 08:48:48;0.00;0.00;0.62;0.00;0.00;0.62;2.57;1.20;;;22.20;29.70;;;;;;2280436;61;20427;-59
2023/12/25 08:51:37;0.00;0.00;0.62;0.00;0.00;0.62;3.73;1.47;;;22.20;29.80;;;;;;2256512;61;20414;-60
2023/12/25 08:54:21;0.00;0.00;0.62;0.00;0.00;0.62;1.80;1.13;;;22.10;29.80;;;;;;2256324;61;20397;-57
2023/12/25 08:57:06;0.00;0.00;0.62;0.00;0.00;0.62;2.93;1.47;;;22.10;29.90;;;;;;2256686;61;20369;-61
2023/12/25 08:59:51;0.00;0.00;0.62;0.00;0.00;0.62;3.77;1.63;;;21.90;29.90;;;;;;2256660;61;20837;-55
2023/12/25 09:02:37;0.00;0.00;0.62;0.00;0.00;0.62;5.00;1.57;;;21.90;30.00;;;;;;2255057;61;20370;-57
2023/12/25 09:05:21;0.00;0.00;0.62;0.00;0.00;0.62;2.80;1.43;;;21.90;30.00;;;;;;2256475;61;20362;-56
2023/12/25 09:08:06;0.00;0.00;0.62;0.00;0.00;0.62;4.00;1.33;;;21.80;30.00;;;;;;2256320;61;20358;-59
2023/12/25 09:10:50;0.00;0.00;0.62;0.00;0.00;0.62;7.20;1.60;;;21.70;30.00;;;;;;2256120;61;20386;-56
2023/12/25 09:13:35;0.00;0.00;0.62;0.00;0.00;0.62;3.70;1.30;;;21.60;30.00;;;;;;2256312;61;20365;-55
2023/12/25 09:16:20;0.00;0.00;0.62;0.00;0.00;0.62;5.20;1.27;;;21.60;30.10;;;;;;2256131;61;20448;-57
2023/12/25 09:19:06;0.00;0.00;0.62;0.00;0.00;0.62;3.80;1.30;;;21.60;30.20;;;;;;2256875;61;20386;-53
2023/12/25 09:21:50;0.00;0.00;0.62;0.00;0.00;0.62;6.70;2.40;;;21.50;30.10;;;;;;2255861;61;20420;-53
2023/12/25 09:24:35;0.00;0.00;0.62;0.00;0.00;0.62;6.83;1.80;;;21.40;30.20;;;;;;2256169;61;20934;-60
2023/12/25 09:27:20;0.00;0.00;0.62;0.00;0.00;0.62;2.60;1.30;;;21.40;30.30;;;;;;2256503;61;20496;-56
2023/12/25 09:30:08;0.00;0.00;0.62;0.00;0.00;0.62;4.67;1.80;;;21.30;30.30;;;;;;2256529;61;20444;-57
2023/12/25 09:32:53;0.00;0.00;0.62;0.00;0.00;0.62;5.63;1.67;;;21.30;30.40;;;;;;2256178;61;20361;-59
2023/12/25 09:35:39;0.00;0.00;0.62;0.00;0.00;0.62;5.57;2.10;;;21.30;30.50;;;;;;2256421;61;20425;-60
2023/12/25 09:38:24;0.00;0.00;0.62;0.00;0.00;0.62;5.00;2.00;;;21.20;30.50;;;;;;2256003;61;20455;-58
2023/12/25 09:41:10;0.00;0.00;0.62;0.00;0.00;0.62;3.93;1.63;;;21.20;30.60;;;;;;2256379;61;20454;-53
2023/12/25 09:43:56;0.00;0.00;0.62;0.00;0.00;0.62;3.80;1.30;;;21.20;30.60;;;;;;2256266;61;20365;-53
2023/12/25 09:46:42;0.00;0.00;0.62;0.00;0.00;0.62;4.27;1.40;;;21.10;30.60;;;;;;2256263;61;20412;-57
2023/12/25 09:49:28;0.00;0.00;0.62;0.00;0.00;0.62;2.80;1.17;;;21.10;30.60;;;;;;2255866;61;20387;-60
2023/12/25 09:52:16;0.00;0.00;0.62;0.00;0.00;0.62;2.33;1.47;;;21.00;30.50;;;;;;2256008;61;20377;-60
2023/12/25 09:55:01;0.00;0.00;0.62;0.00;0.00;0.62;4.23;1.50;;;21.00;30.60;;;;;;2256380;61;20416;-57
2023/12/25 09:57:47;0.00;0.00;0.62;0.00;0.00;0.62;3.47;1.80;;;21.00;30.60;;;;;;2256505;61;20416;-60
2023/12/25 10:00:32;0.00;0.00;0.62;0.00;0.00;0.62;3.60;1.60;;;21.00;30.70;;;;;;2255848;61;20957;-53
2023/12/25 10:03:18;0.00;0.00;0.62;0.00;0.00;0.62;3.40;1.60;;;21.00;30.90;;;;;;2256229;61;20368;-57
2023/12/25 10:06:03;0.00;0.00;0.62;0.00;0.00;0.62;5.63;2.40;;;21.00;30.90;;;;;;2256167;61;20366;-56
2023/12/25 10:08:49;0.00;0.00;0.62;0.00;0.00;0.62;3.13;1.10;;;20.90;30.80;;;;;;2256089;61;20370;-57
2023/12/25 10:11:34;0.00;0.00;0.62;0.00;0.00;0.62;2.73;1.30;;;20.90;30.80;;;;;;2256166;61;20928;-52
2023/12/25 10:14:18;0.00;0.00;0.62;0.00;0.00;0.62;4.33;1.40;;;20.90;30.90;;;;;;2256435;61;20966;-58
2023/12/25 10:17:03;0.00;0.00;0.62;0.00;0.00;0.62;5.57;1.50;;;20.90;30.90;;;;;;2256160;61;20465;-56
2023/12/25 10:19:54;0.00;0.00;0.62;0.00;0.00;0.62;3.50;1.43;;;20.80;31.20;;;;;;2256528;61;20386;-55
2023/12/25 10:22:39;0.00;0.00;0.62;0.00;0.00;0.62;2.30;1.10;;;20.80;30.90;;;;;;2490185;53;20784;-57
2023/12/25 10:25:30;0.00;0.00;0.62;0.00;0.00;0.62;3.43;1.80;;;20.80;31.00;;;;;;2252430;61;20882;-58
2023/12/25 10:28:15;0.00;0.00;0.62;0.00;0.00;0.62;2.80;1.00;;;20.80;31.10;;;;;;2251725;61;20359;-57
2023/12/25 10:31:00;0.00;0.00;0.62;0.00;0.00;0.62;3.10;1.30;;;20.80;31.20;;;;;;2256109;61;20464;-56
2023/12/25 10:33:57;0.00;0.00;0.62;0.00;0.00;0.62;3.17;1.60;;;20.80;31.20;;;;;;2256155;61;20377;-56
2023/12/25 10:36:42;0.00;0.00;0.62;0.00;0.00;0.62;4.10;1.90;;;20.90;31.50;;;;;;2257315;61;20373;-59
2023/12/25 10:39:31;0.00;0.00;0.62;0.00;0.00;0.62;3.77;1.70;;;20.90;31.50;;;;;;2257113;61;20944;-59
2023/12/25 10:42:17;0.00;0.00;0.62;0.00;0.00;0.62;4.07;1.90;;;20.90;31.60;;;;;;2256679;61;20913;-60
2023/12/25 10:45:02;0.00;0.00;0.62;0.00;0.00;0.62;5.40;2.30;;;21.00;31.60;;;;;;2256800;61;20850;-54
2023/12/25 10:47:50;0.00;0.00;0.62;0.00;0.00;0.62;5.67;3.33;;;21.00;31.60;;;;;;2257089;61;20361;-59
2023/12/25 10:50:36;0.00;0.00;0.62;0.00;0.00;0.62;4.90;2.90;;;21.10;31.70;;;;;;2257142;61;20529;-55
2023/12/25 10:53:21;0.00;0.00;0.62;0.00;0.00;0.62;5.73;3.37;;;21.20;31.80;;;;;;2256486;61;20778;-55